createdAt,value
2018-01-01T00:00:04.829Z,0
2018-01-01T00:01:06.375Z,0
2018-01-01T00:02:08.335Z,0
2018-01-01T00:03:09.802Z,0
2018-01-01T00:04:11.462Z,0
2018-01-01T00:05:12.892Z,0
2018-01-01T00:06:14.747Z,0
2018-01-01T00:07:16.483Z,0
2018-01-01T00:08:17.959Z,0
2018-01-01T00:09:19.421Z,0
2018-01-01T00:10:20.947Z,0
2018-01-01T00:11:22.320Z,0
2018-01-01T00:12:23.943Z,0
2018-01-01T00:13:25.440Z,0
2018-01-01T00:14:27.100Z,0
2018-01-01T00:15:28.734Z,0
2018-01-01T00:16:30.437Z,0
2018-01-01T00:17:31.836Z,0
2018-01-01T00:18:33.442Z,0
2018-01-01T00:19:35.144Z,0
2018-01-01T00:20:37.086Z,0
2018-01-01T00:21:38.496Z,0
2018-01-01T00:22:40.264Z,0
2018-01-01T00:23:42.005Z,0
2018-01-01T00:24:43.734Z,0
2018-01-01T00:25:45.249Z,0
2018-01-01T00:26:47.233Z,0
2018-01-01T00:27:48.749Z,0
2018-01-01T00:28:50.449Z,0
2018-01-01T00:29:51.909Z,0
2018-01-01T00:30:53.349Z,0
2018-01-01T00:31:55.966Z,0
2018-01-01T00:32:57.602Z,0
2018-01-01T00:33:59.535Z,0
2018-01-01T00:35:01.326Z,0
2018-01-01T00:36:02.841Z,0
2018-01-01T00:37:04.280Z,0
2018-01-01T00:38:06.083Z,0
2018-01-01T00:39:07.541Z,0
2018-01-01T00:40:08.976Z,0
2018-01-01T00:41:10.820Z,0
2018-01-01T00:42:12.616Z,0
2018-01-01T00:43:14.477Z,0
2018-01-01T00:44:16.180Z,0
2018-01-01T00:45:17.598Z,0
2018-01-01T00:46:19.195Z,0
2018-01-01T00:47:20.776Z,0
2018-01-01T00:48:22.424Z,0
2018-01-01T00:49:24.111Z,0
2018-01-01T00:50:25.585Z,0
2018-01-01T00:51:27.387Z,0
2018-01-01T00:52:28.878Z,0
2018-01-01T00:53:30.654Z,0
2018-01-01T00:54:32.272Z,0
2018-01-01T00:55:33.800Z,0
2018-01-01T00:56:35.393Z,0
2018-01-01T00:57:37.228Z,0
2018-01-01T00:58:38.766Z,0
2018-01-01T00:59:40.250Z,0
2018-01-01T01:00:42.134Z,0
2018-01-01T01:01:43.948Z,0
2018-01-01T01:02:45.586Z,0
2018-01-01T01:03:47.142Z,0
2018-01-01T01:04:48.740Z,0
2018-01-01T01:05:50.378Z,0
2018-01-01T01:06:52.132Z,0
2018-01-01T01:07:53.870Z,0
2018-01-01T01:08:55.744Z,0
2018-01-01T01:09:57.425Z,0
2018-01-01T01:10:59.162Z,0
2018-01-01T01:12:00.760Z,0
2018-01-01T01:13:02.232Z,0
2018-01-01T01:14:03.723Z,0
2018-01-01T01:15:05.205Z,0
2018-01-01T01:16:06.632Z,0
2018-01-01T01:17:08.384Z,0
2018-01-01T01:18:10.056Z,0
2018-01-01T01:19:11.463Z,0
2018-01-01T01:20:12.927Z,0
2018-01-01T01:21:15.289Z,0
2018-01-01T01:22:16.767Z,0
2018-01-01T01:23:18.206Z,0
2018-01-01T01:24:19.654Z,0
2018-01-01T01:25:21.215Z,0
2018-01-01T01:26:22.872Z,0
2018-01-01T01:27:24.604Z,0
2018-01-01T01:28:26.411Z,0
2018-01-01T01:29:27.968Z,0
2018-01-01T01:30:29.653Z,0
2018-01-01T01:31:31.093Z,0
2018-01-01T01:32:32.706Z,0
2018-01-01T01:33:34.201Z,0
2018-01-01T01:34:36.015Z,0
2018-01-01T01:35:37.648Z,0
2018-01-01T01:36:39.072Z,0
2018-01-01T01:37:40.597Z,0
2018-01-01T01:38:42.306Z,0
2018-01-01T01:39:43.768Z,0
2018-01-01T01:40:45.259Z,0
2018-01-01T01:41:46.946Z,0
2018-01-01T01:42:48.499Z,0
2018-01-01T01:43:50.155Z,0
2018-01-01T01:44:51.905Z,0
2018-01-01T01:45:53.625Z,0
2018-01-01T01:46:55.161Z,0
2018-01-01T01:47:56.821Z,0
2018-01-01T01:48:58.651Z,0
2018-01-01T01:50:00.153Z,0
2018-01-01T01:51:01.807Z,0
2018-01-01T01:52:03.446Z,0
2018-01-01T01:53:05.131Z,0
2018-01-01T01:54:06.645Z,0
2018-01-01T01:55:08.406Z,0
2018-01-01T01:56:09.888Z,0
2018-01-01T01:57:11.416Z,0
2018-01-01T01:58:12.833Z,0
2018-01-01T01:59:14.288Z,0
2018-01-01T02:00:15.954Z,0
2018-01-01T02:01:17.475Z,0
2018-01-01T02:02:18.952Z,0
2018-01-01T02:03:20.657Z,0
2018-01-01T02:04:22.164Z,0
2018-01-01T02:05:23.852Z,0
2018-01-01T02:06:25.296Z,0
2018-01-01T02:07:27.006Z,0
2018-01-01T02:08:28.536Z,0
2018-01-01T02:09:30.128Z,0
2018-01-01T02:10:31.834Z,0
2018-01-01T02:11:33.234Z,0
2018-01-01T02:12:34.847Z,0
2018-01-01T02:13:36.360Z,0
2018-01-01T02:14:37.852Z,0
2018-01-01T02:15:39.497Z,0
2018-01-01T02:16:41.007Z,0
2018-01-01T02:17:42.587Z,0
2018-01-01T02:18:44.020Z,0
2018-01-01T02:19:45.501Z,0
2018-01-01T02:20:46.995Z,0
2018-01-01T02:21:48.563Z,0
2018-01-01T02:22:50.165Z,0
2018-01-01T02:23:51.725Z,0
2018-01-01T02:24:53.204Z,0
2018-01-01T02:25:54.614Z,0
2018-01-01T02:26:56.118Z,0
2018-01-01T02:27:57.685Z,0
2018-01-01T02:28:59.639Z,0
2018-01-01T02:30:01.465Z,0
2018-01-01T02:31:02.926Z,0
2018-01-01T02:32:04.780Z,0
2018-01-01T02:33:06.743Z,0
2018-01-01T02:34:08.473Z,0
2018-01-01T02:35:09.890Z,0
2018-01-01T02:36:11.473Z,0
2018-01-01T02:37:12.907Z,0
2018-01-01T02:38:14.565Z,0
2018-01-01T02:39:16.399Z,0
2018-01-01T02:40:17.880Z,0
2018-01-01T02:41:19.364Z,0
2018-01-01T02:42:20.809Z,0
2018-01-01T02:43:22.479Z,0
2018-01-01T02:44:24.142Z,0
2018-01-01T02:45:25.606Z,0
2018-01-01T02:46:27.068Z,0
2018-01-01T02:47:28.929Z,0
2018-01-01T02:48:30.537Z,0
2018-01-01T02:49:32.143Z,0
2018-01-01T02:50:33.968Z,0
2018-01-01T02:51:36.111Z,0
2018-01-01T02:52:37.927Z,0
2018-01-01T02:53:39.430Z,0
2018-01-01T02:54:41.014Z,0
2018-01-01T02:55:43.051Z,0
2018-01-01T02:56:44.545Z,0
2018-01-01T02:57:46.418Z,0
2018-01-01T02:58:48.156Z,0
2018-01-01T02:59:50.007Z,0
2018-01-01T03:00:51.765Z,0
2018-01-01T03:01:53.739Z,0
2018-01-01T03:02:55.333Z,0
2018-01-01T03:03:56.864Z,0
2018-01-01T03:04:58.289Z,0
2018-01-01T03:05:59.713Z,0
2018-01-01T03:07:01.335Z,0
2018-01-01T03:08:03.155Z,0
2018-01-01T03:09:05.904Z,0
2018-01-01T03:10:07.713Z,0
2018-01-01T03:11:09.440Z,0
2018-01-01T03:12:11.004Z,0
2018-01-01T03:13:13.013Z,0
2018-01-01T03:14:15.400Z,0
2018-01-01T03:15:16.926Z,0
2018-01-01T03:16:18.508Z,0
2018-01-01T03:17:20.281Z,0
2018-01-01T03:18:22.108Z,0
2018-01-01T03:19:23.736Z,0
2018-01-01T03:20:25.383Z,0
2018-01-01T03:21:26.885Z,0
2018-01-01T03:22:28.505Z,0
2018-01-01T03:23:30.217Z,0
2018-01-01T03:24:31.818Z,0
2018-01-01T03:25:33.443Z,0
2018-01-01T03:26:34.939Z,0
2018-01-01T03:27:36.769Z,0
2018-01-01T03:28:38.334Z,0
2018-01-01T03:29:39.924Z,0
2018-01-01T03:30:41.732Z,0
2018-01-01T03:31:43.572Z,0
2018-01-01T03:32:45.343Z,0
2018-01-01T03:33:46.782Z,0
2018-01-01T03:34:48.299Z,0
2018-01-01T03:35:49.966Z,0
2018-01-01T03:36:51.742Z,0
2018-01-01T03:37:53.560Z,0
2018-01-01T03:38:55.232Z,0
2018-01-01T03:39:56.909Z,0
2018-01-01T03:40:58.540Z,0
2018-01-01T03:42:00.201Z,0
2018-01-01T03:43:01.894Z,0
2018-01-01T03:44:03.374Z,0
2018-01-01T03:45:04.844Z,0
2018-01-01T03:46:06.351Z,0
2018-01-01T03:47:08.046Z,0
2018-01-01T03:48:09.467Z,0
2018-01-01T03:49:11.384Z,0
2018-01-01T03:50:12.868Z,0
2018-01-01T03:51:14.506Z,0
2018-01-01T03:52:15.980Z,0
2018-01-01T03:53:17.510Z,0
2018-01-01T03:54:18.981Z,0
2018-01-01T03:55:20.454Z,0
2018-01-01T03:56:21.934Z,0
2018-01-01T03:57:23.618Z,0
2018-01-01T03:58:25.247Z,0
2018-01-01T03:59:26.980Z,0
2018-01-01T04:00:28.723Z,0
2018-01-01T04:01:30.532Z,0
2018-01-01T04:02:31.966Z,0
2018-01-01T04:03:33.425Z,0
2018-01-01T04:04:35.205Z,0
2018-01-01T04:05:36.914Z,0
2018-01-01T04:06:38.803Z,0
2018-01-01T04:07:40.625Z,0
2018-01-01T04:08:42.752Z,0
2018-01-01T04:09:44.467Z,0
2018-01-01T04:10:46.322Z,0
2018-01-01T04:11:48.233Z,0
2018-01-01T04:12:49.885Z,0
2018-01-01T04:13:51.548Z,0
2018-01-01T04:14:53.224Z,0
2018-01-01T04:15:55.033Z,0
2018-01-01T04:16:56.708Z,0
2018-01-01T04:17:58.301Z,0
2018-01-01T04:18:59.806Z,0
2018-01-01T04:20:01.584Z,0
2018-01-01T04:21:03.420Z,0
2018-01-01T04:22:04.983Z,0
2018-01-01T04:23:06.471Z,0
2018-01-01T04:24:07.956Z,0
2018-01-01T04:25:09.566Z,0
2018-01-01T04:26:11.020Z,0
2018-01-01T04:27:12.880Z,0
2018-01-01T04:28:14.565Z,0
2018-01-01T04:29:16.156Z,0
2018-01-01T04:30:17.799Z,0
2018-01-01T04:31:19.516Z,0
2018-01-01T04:32:20.986Z,0
2018-01-01T04:33:22.651Z,0
2018-01-01T04:34:24.168Z,0
2018-01-01T04:35:25.642Z,0
2018-01-01T04:36:27.331Z,0
2018-01-01T04:37:29.065Z,0
2018-01-01T04:38:30.690Z,0
2018-01-01T04:39:32.240Z,0
2018-01-01T04:40:33.689Z,0
2018-01-01T04:41:35.354Z,0
2018-01-01T04:42:37.001Z,0
2018-01-01T04:43:38.647Z,0
2018-01-01T04:44:40.061Z,0
2018-01-01T04:45:41.774Z,0
2018-01-01T04:46:43.431Z,0
2018-01-01T04:47:44.879Z,0
2018-01-01T04:48:46.547Z,0
2018-01-01T04:49:48.272Z,0
2018-01-01T04:50:49.732Z,0
2018-01-01T04:51:51.216Z,0
2018-01-01T04:52:52.948Z,0
2018-01-01T04:53:54.452Z,0
2018-01-01T04:54:56.014Z,0
2018-01-01T04:55:57.639Z,0
2018-01-01T04:56:59.080Z,0
2018-01-01T04:58:00.502Z,0
2018-01-01T04:59:01.973Z,0
2018-01-01T05:00:03.636Z,0
2018-01-01T05:01:05.374Z,0
2018-01-01T05:02:07.069Z,0
2018-01-01T05:03:08.488Z,0
2018-01-01T05:04:10.264Z,0
2018-01-01T05:05:11.933Z,0
2018-01-01T05:06:13.395Z,0
2018-01-01T05:07:15.071Z,0
2018-01-01T05:08:16.764Z,0
2018-01-01T05:09:18.540Z,0
2018-01-01T05:10:20.006Z,0
2018-01-01T05:11:21.486Z,0
2018-01-01T05:12:23.005Z,0
2018-01-01T05:13:24.559Z,0
2018-01-01T05:14:26.026Z,0
2018-01-01T05:15:27.749Z,0
2018-01-01T05:16:29.503Z,0
2018-01-01T05:17:31.195Z,0
2018-01-01T05:18:33.026Z,0
2018-01-01T05:19:34.656Z,0
2018-01-01T05:20:36.121Z,0
2018-01-01T05:21:37.819Z,0
2018-01-01T05:22:39.288Z,0
2018-01-01T05:23:40.906Z,0
2018-01-01T05:24:42.624Z,0
2018-01-01T05:25:44.090Z,0
2018-01-01T05:26:45.516Z,0
2018-01-01T05:27:47.158Z,0
2018-01-01T05:28:48.810Z,0
2018-01-01T05:29:50.276Z,0
2018-01-01T05:30:52.019Z,0
2018-01-01T05:31:53.443Z,0
2018-01-01T05:32:55.083Z,0
2018-01-01T05:33:56.771Z,0
2018-01-01T05:34:58.225Z,0
2018-01-01T05:35:59.900Z,0
2018-01-01T05:37:01.579Z,0
2018-01-01T05:38:03.133Z,0
2018-01-01T05:39:04.734Z,0
2018-01-01T05:40:06.225Z,0
2018-01-01T05:41:07.994Z,0
2018-01-01T05:42:09.632Z,0
2018-01-01T05:43:11.074Z,0
2018-01-01T05:44:12.693Z,0
2018-01-01T05:45:14.182Z,0
2018-01-01T05:46:15.917Z,0
2018-01-01T05:47:17.650Z,0
2018-01-01T05:48:19.092Z,0
2018-01-01T05:49:20.972Z,0
2018-01-01T05:50:22.723Z,0
2018-01-01T05:51:24.433Z,0
2018-01-01T05:52:26.136Z,0
2018-01-01T05:53:27.610Z,0
2018-01-01T05:54:29.417Z,0
2018-01-01T05:55:31.164Z,0
2018-01-01T05:56:32.612Z,0
2018-01-01T05:57:34.348Z,0
2018-01-01T05:58:35.885Z,0
2018-01-01T05:59:37.645Z,0
2018-01-01T06:00:39.299Z,0
2018-01-01T06:01:41.000Z,0
2018-01-01T06:02:42.680Z,0
2018-01-01T06:03:44.327Z,0
2018-01-01T06:04:45.883Z,0
2018-01-01T06:05:48.026Z,0
2018-01-01T06:06:49.759Z,0
2018-01-01T06:07:51.241Z,0
2018-01-01T06:08:53.002Z,0
2018-01-01T06:09:54.424Z,0
2018-01-01T06:10:56.119Z,0
2018-01-01T06:11:57.918Z,0
2018-01-01T06:12:59.396Z,0
2018-01-01T06:14:00.816Z,0
2018-01-01T06:15:02.262Z,0
2018-01-01T06:16:03.836Z,0
2018-01-01T06:17:05.247Z,0
2018-01-01T06:18:06.695Z,0
2018-01-01T06:19:08.301Z,0
2018-01-01T06:20:09.968Z,0
2018-01-01T06:21:11.569Z,0
2018-01-01T06:22:13.168Z,0
2018-01-01T06:23:14.961Z,0
2018-01-01T06:24:16.437Z,0
2018-01-01T06:25:18.158Z,0
2018-01-01T06:26:19.743Z,0
2018-01-01T06:27:21.443Z,0
2018-01-01T06:28:23.117Z,0
2018-01-01T06:29:24.848Z,0
2018-01-01T06:30:26.336Z,0
2018-01-01T06:31:27.868Z,0
2018-01-01T06:32:29.342Z,0
2018-01-01T06:33:31.146Z,0
2018-01-01T06:34:32.663Z,0
2018-01-01T06:35:34.092Z,0
2018-01-01T06:36:35.533Z,0
2018-01-01T06:37:36.970Z,0
2018-01-01T06:38:38.414Z,0
2018-01-01T06:39:39.996Z,0
2018-01-01T06:40:41.438Z,0
2018-01-01T06:41:42.892Z,0
2018-01-01T06:42:44.324Z,0
2018-01-01T06:43:45.782Z,0
2018-01-01T06:44:47.268Z,0
2018-01-01T06:45:48.788Z,0
2018-01-01T06:46:50.250Z,0
2018-01-01T06:47:51.690Z,0
2018-01-01T06:48:53.280Z,0
2018-01-01T06:49:54.806Z,0
2018-01-01T06:50:56.298Z,0
2018-01-01T06:51:57.823Z,0
2018-01-01T06:52:59.479Z,0
2018-01-01T06:54:01.164Z,0
2018-01-01T06:55:02.678Z,0
2018-01-01T06:56:04.295Z,0
2018-01-01T06:57:05.956Z,0
2018-01-01T06:58:07.514Z,0
2018-01-01T06:59:09.144Z,0
2018-01-01T07:00:10.592Z,0
2018-01-01T07:01:12.234Z,0
2018-01-01T07:02:13.633Z,0
2018-01-01T07:03:15.326Z,0
2018-01-01T07:04:16.820Z,0
2018-01-01T07:05:18.432Z,0
2018-01-01T07:06:20.075Z,0
2018-01-01T07:07:21.590Z,0
2018-01-01T07:08:23.030Z,0
2018-01-01T07:09:24.638Z,0
2018-01-01T07:10:26.120Z,0
2018-01-01T07:11:27.577Z,0
2018-01-01T07:12:29.230Z,0
2018-01-01T07:13:30.661Z,0
2018-01-01T07:14:32.087Z,0
2018-01-01T07:15:33.549Z,0
2018-01-01T07:16:35.052Z,0
2018-01-01T07:17:36.723Z,0
2018-01-01T07:18:38.358Z,0
2018-01-01T07:19:40.075Z,0
2018-01-01T07:20:41.748Z,0
2018-01-01T07:21:43.666Z,0
2018-01-01T07:22:45.263Z,0
2018-01-01T07:23:46.781Z,0
2018-01-01T07:24:48.318Z,0
2018-01-01T07:25:50.071Z,0
2018-01-01T07:26:52.069Z,5
2018-01-01T07:27:53.531Z,5
2018-01-01T07:28:55.121Z,5
2018-01-01T07:29:56.577Z,5
2018-01-01T07:30:58.217Z,5
2018-01-01T07:31:59.942Z,5
2018-01-01T07:33:01.407Z,5
2018-01-01T07:34:03.130Z,5
2018-01-01T07:35:04.783Z,5
2018-01-01T07:36:06.257Z,10
2018-01-01T07:37:07.906Z,10
2018-01-01T07:38:09.514Z,5
2018-01-01T07:39:11.239Z,5
2018-01-01T07:40:12.827Z,10
2018-01-01T07:41:14.461Z,10
2018-01-01T07:42:15.990Z,10
2018-01-01T07:43:17.790Z,15
2018-01-01T07:44:19.499Z,15
2018-01-01T07:45:21.016Z,15
2018-01-01T07:46:22.548Z,15
2018-01-01T07:47:24.229Z,15
2018-01-01T07:48:25.659Z,15
2018-01-01T07:49:27.136Z,20
2018-01-01T07:50:28.789Z,20
2018-01-01T07:51:30.318Z,25
2018-01-01T07:52:31.818Z,25
2018-01-01T07:53:33.307Z,25
2018-01-01T07:54:34.841Z,25
2018-01-01T07:55:36.416Z,25
2018-01-01T07:56:38.157Z,30
2018-01-01T07:57:39.942Z,30
2018-01-01T07:58:41.618Z,30
2018-01-01T07:59:43.317Z,30
2018-01-01T08:00:44.813Z,35
2018-01-01T08:01:46.307Z,40
2018-01-01T08:02:47.942Z,45
2018-01-01T08:03:49.456Z,40
2018-01-01T08:04:51.013Z,40
2018-01-01T08:05:52.712Z,50
2018-01-01T08:06:54.180Z,55
2018-01-01T08:07:55.600Z,55
2018-01-01T08:08:57.050Z,55
2018-01-01T08:09:58.592Z,65
2018-01-01T08:11:00.298Z,70
2018-01-01T08:12:01.960Z,60
2018-01-01T08:13:03.424Z,65
2018-01-01T08:14:05.086Z,55
2018-01-01T08:15:06.774Z,60
2018-01-01T08:16:08.255Z,70
2018-01-01T08:17:09.953Z,65
2018-01-01T08:18:11.730Z,70
2018-01-01T08:19:13.677Z,75
2018-01-01T08:20:15.220Z,85
2018-01-01T08:21:16.732Z,100
2018-01-01T08:22:18.442Z,100
2018-01-01T08:23:19.921Z,85
2018-01-01T08:24:21.410Z,80
2018-01-01T08:25:23.127Z,85
2018-01-01T08:26:24.694Z,160
2018-01-01T08:27:26.334Z,110
2018-01-01T08:28:27.912Z,100
2018-01-01T08:29:29.351Z,115
2018-01-01T08:30:30.808Z,145
2018-01-01T08:31:32.551Z,215
2018-01-01T08:32:34.249Z,155
2018-01-01T08:33:35.783Z,110
2018-01-01T08:34:37.310Z,115
2018-01-01T08:35:38.943Z,160
2018-01-01T08:36:40.635Z,145
2018-01-01T08:37:42.123Z,125
2018-01-01T08:38:43.587Z,110
2018-01-01T08:39:45.102Z,140
2018-01-01T08:40:46.578Z,160
2018-01-01T08:41:48.076Z,200
2018-01-01T08:42:49.651Z,170
2018-01-01T08:43:51.089Z,135
2018-01-01T08:44:52.573Z,180
2018-01-01T08:45:54.276Z,130
2018-01-01T08:46:55.834Z,170
2018-01-01T08:47:57.307Z,120
2018-01-01T08:48:58.824Z,110
2018-01-01T08:50:00.408Z,150
2018-01-01T08:51:01.875Z,150
2018-01-01T08:52:03.536Z,95
2018-01-01T08:53:05.024Z,85
2018-01-01T08:54:06.757Z,80
2018-01-01T08:55:08.270Z,85
2018-01-01T08:56:10.071Z,90
2018-01-01T08:57:11.773Z,90
2018-01-01T08:58:13.439Z,90
2018-01-01T08:59:15.157Z,90
2018-01-01T09:00:16.647Z,95
2018-01-01T09:01:18.178Z,105
2018-01-01T09:02:19.717Z,105
2018-01-01T09:03:21.561Z,110
2018-01-01T09:04:23.192Z,120
2018-01-01T09:05:24.722Z,125
2018-01-01T09:06:26.194Z,135
2018-01-01T09:07:27.735Z,140
2018-01-01T09:08:29.255Z,140
2018-01-01T09:09:30.803Z,150
2018-01-01T09:10:32.299Z,150
2018-01-01T09:11:34.082Z,150
2018-01-01T09:12:35.551Z,140
2018-01-01T09:13:37.011Z,130
2018-01-01T09:14:38.611Z,120
2018-01-01T09:15:40.300Z,110
2018-01-01T09:16:42.002Z,105
2018-01-01T09:17:43.718Z,100
2018-01-01T09:18:45.204Z,85
2018-01-01T09:19:46.757Z,95
2018-01-01T09:20:48.205Z,95
2018-01-01T09:21:49.917Z,110
2018-01-01T09:22:51.692Z,110
2018-01-01T09:23:53.358Z,120
2018-01-01T09:24:55.104Z,135
2018-01-01T09:25:56.835Z,140
2018-01-01T09:26:58.334Z,140
2018-01-01T09:27:59.795Z,145
2018-01-01T09:29:01.264Z,165
2018-01-01T09:30:02.862Z,155
2018-01-01T09:31:04.363Z,170
2018-01-01T09:32:06.032Z,165
2018-01-01T09:33:07.754Z,160
2018-01-01T09:34:09.541Z,155
2018-01-01T09:35:11.302Z,150
2018-01-01T09:36:13.122Z,145
2018-01-01T09:37:14.877Z,140
2018-01-01T09:38:16.579Z,135
2018-01-01T09:39:18.284Z,140
2018-01-01T09:40:19.906Z,145
2018-01-01T09:41:21.672Z,150
2018-01-01T09:42:23.174Z,160
2018-01-01T09:43:24.889Z,170
2018-01-01T09:44:26.541Z,185
2018-01-01T09:45:28.341Z,195
2018-01-01T09:46:29.819Z,190
2018-01-01T09:47:31.513Z,160
2018-01-01T09:48:33.285Z,140
2018-01-01T09:49:34.756Z,145
2018-01-01T09:50:36.183Z,150
2018-01-01T09:51:37.727Z,170
2018-01-01T09:52:39.513Z,200
2018-01-01T09:53:41.224Z,220
2018-01-01T09:54:43.006Z,210
2018-01-01T09:55:44.532Z,230
2018-01-01T09:56:46.205Z,190
2018-01-01T09:57:48.086Z,185
2018-01-01T09:58:49.736Z,190
2018-01-01T09:59:51.523Z,160
2018-01-01T10:00:53.085Z,150
2018-01-01T10:01:54.571Z,165
2018-01-01T10:02:56.271Z,175
2018-01-01T10:03:58.086Z,180
2018-01-01T10:04:59.938Z,220
2018-01-01T10:06:01.683Z,205
2018-01-01T10:07:03.142Z,225
2018-01-01T10:08:04.833Z,210
2018-01-01T10:09:06.317Z,240
2018-01-01T10:10:07.832Z,220
2018-01-01T10:11:09.318Z,175
2018-01-01T10:12:10.794Z,200
2018-01-01T10:13:12.404Z,185
2018-01-01T10:14:13.856Z,200
2018-01-01T10:15:15.411Z,185
2018-01-01T10:16:17.129Z,195
2018-01-01T10:17:18.865Z,200
2018-01-01T10:18:20.562Z,180
2018-01-01T10:19:22.332Z,135
2018-01-01T10:20:24.174Z,135
2018-01-01T10:21:25.904Z,165
2018-01-01T10:22:27.705Z,220
2018-01-01T10:23:29.177Z,210
2018-01-01T10:24:30.822Z,200
2018-01-01T10:25:32.414Z,165
2018-01-01T10:26:33.873Z,145
2018-01-01T10:27:35.396Z,175
2018-01-01T10:28:37.132Z,135
2018-01-01T10:29:38.649Z,145
2018-01-01T10:30:40.230Z,215
2018-01-01T10:31:41.772Z,210
2018-01-01T10:32:43.591Z,225
2018-01-01T10:33:45.309Z,345
2018-01-01T10:34:46.836Z,320
2018-01-01T10:35:48.261Z,245
2018-01-01T10:36:49.719Z,255
2018-01-01T10:37:51.189Z,185
2018-01-01T10:38:52.649Z,165
2018-01-01T10:39:54.096Z,130
2018-01-01T10:40:55.587Z,130
2018-01-01T10:41:57.050Z,135
2018-01-01T10:42:58.552Z,135
2018-01-01T10:44:00.008Z,150
2018-01-01T10:45:01.470Z,165
2018-01-01T10:46:02.936Z,185
2018-01-01T10:47:04.369Z,135
2018-01-01T10:48:05.844Z,100
2018-01-01T10:49:07.281Z,130
2018-01-01T10:50:08.859Z,125
2018-01-01T10:51:10.303Z,125
2018-01-01T10:52:11.808Z,135
2018-01-01T10:53:13.258Z,135
2018-01-01T10:54:14.704Z,120
2018-01-01T10:55:16.151Z,115
2018-01-01T10:56:17.686Z,125
2018-01-01T10:57:19.145Z,115
2018-01-01T10:58:20.688Z,90
2018-01-01T10:59:22.264Z,100
2018-01-01T11:00:23.683Z,100
2018-01-01T11:01:25.096Z,155
2018-01-01T11:02:26.630Z,120
2018-01-01T11:03:28.410Z,155
2018-01-01T11:04:30.143Z,135
2018-01-01T11:05:31.814Z,125
2018-01-01T11:06:33.317Z,145
2018-01-01T11:07:34.983Z,125
2018-01-01T11:08:36.740Z,190
2018-01-01T11:09:38.305Z,225
2018-01-01T11:10:40.032Z,210
2018-01-01T11:11:41.477Z,185
2018-01-01T11:12:43.159Z,170
2018-01-01T11:13:44.891Z,200
2018-01-01T11:14:46.422Z,140
2018-01-01T11:15:47.893Z,115
2018-01-01T11:16:49.551Z,130
2018-01-01T11:17:51.237Z,95
2018-01-01T11:18:52.925Z,125
2018-01-01T11:19:54.491Z,130
2018-01-01T11:20:56.130Z,110
2018-01-01T11:21:57.893Z,130
2018-01-01T11:22:59.599Z,165
2018-01-01T11:24:01.322Z,155
2018-01-01T11:25:03.160Z,180
2018-01-01T11:26:04.572Z,195
2018-01-01T11:27:06.256Z,210
2018-01-01T11:28:07.799Z,330
2018-01-01T11:29:09.448Z,325
2018-01-01T11:30:11.230Z,420
2018-01-01T11:31:12.675Z,255
2018-01-01T11:32:14.166Z,215
2018-01-01T11:33:15.937Z,330
2018-01-01T11:34:17.448Z,405
2018-01-01T11:35:18.917Z,295
2018-01-01T11:36:23.998Z,260
2018-01-01T11:37:25.482Z,250
2018-01-01T11:38:27.009Z,275
2018-01-01T11:39:28.733Z,340
2018-01-01T11:40:30.352Z,275
2018-01-01T11:41:32.111Z,355
2018-01-01T11:42:33.911Z,465
2018-01-01T11:43:35.546Z,415
2018-01-01T11:44:37.063Z,385
2018-01-01T11:45:38.749Z,610
2018-01-01T11:46:40.562Z,515
2018-01-01T11:47:42.033Z,580
2018-01-01T11:48:43.746Z,250
2018-01-01T11:49:45.401Z,275
2018-01-01T11:50:47.102Z,325
2018-01-01T11:51:48.642Z,240
2018-01-01T11:52:50.335Z,510
2018-01-01T11:53:51.945Z,325
2018-01-01T11:54:53.697Z,205
2018-01-01T11:55:55.315Z,190
2018-01-01T11:56:57.113Z,195
2018-01-01T11:57:58.802Z,205
2018-01-01T11:59:00.483Z,220
2018-01-01T12:00:01.958Z,245
2018-01-01T12:01:03.470Z,220
2018-01-01T12:02:04.902Z,265
2018-01-01T12:03:06.376Z,315
2018-01-01T12:04:08.041Z,260
2018-01-01T12:05:09.673Z,305
2018-01-01T12:06:11.381Z,305
2018-01-01T12:07:13.179Z,335
2018-01-01T12:08:14.912Z,415
2018-01-01T12:09:16.468Z,585
2018-01-01T12:10:18.385Z,475
2018-01-01T12:11:20.107Z,405
2018-01-01T12:12:21.907Z,430
2018-01-01T12:13:23.402Z,400
2018-01-01T12:14:25.077Z,685
2018-01-01T12:15:26.658Z,570
2018-01-01T12:16:28.431Z,365
2018-01-01T12:17:29.914Z,535
2018-01-01T12:18:31.607Z,515
2018-01-01T12:19:33.305Z,315
2018-01-01T12:20:35.044Z,420
2018-01-01T12:21:36.668Z,495
2018-01-01T12:22:38.433Z,625
2018-01-01T12:23:40.099Z,555
2018-01-01T12:24:41.712Z,220
2018-01-01T12:25:43.338Z,350
2018-01-01T12:26:44.787Z,515
2018-01-01T12:27:46.225Z,510
2018-01-01T12:28:47.677Z,520
2018-01-01T12:29:49.257Z,370
2018-01-01T12:30:51.062Z,280
2018-01-01T12:31:52.902Z,295
2018-01-01T12:32:54.402Z,335
2018-01-01T12:33:56.138Z,355
2018-01-01T12:34:57.649Z,465
2018-01-01T12:35:59.459Z,285
2018-01-01T12:37:00.902Z,265
2018-01-01T12:38:02.665Z,255
2018-01-01T12:39:04.348Z,275
2018-01-01T12:40:05.794Z,290
2018-01-01T12:41:07.442Z,290
2018-01-01T12:42:09.047Z,290
2018-01-01T12:43:10.816Z,265
2018-01-01T12:44:12.541Z,250
2018-01-01T12:45:14.018Z,230
2018-01-01T12:46:15.511Z,195
2018-01-01T12:47:18.043Z,180
2018-01-01T12:48:19.536Z,145
2018-01-01T12:49:21.210Z,150
2018-01-01T12:50:23.095Z,155
2018-01-01T12:51:24.947Z,125
2018-01-01T12:52:26.381Z,145
2018-01-01T12:53:28.023Z,170
2018-01-01T12:54:29.763Z,105
2018-01-01T12:55:31.378Z,110
2018-01-01T12:56:33.113Z,110
2018-01-01T12:57:34.793Z,120
2018-01-01T12:58:36.536Z,120
2018-01-01T12:59:38.420Z,90
2018-01-01T13:00:40.159Z,90
2018-01-01T13:01:41.643Z,90
2018-01-01T13:02:43.181Z,105
2018-01-01T13:03:45.058Z,110
2018-01-01T13:04:46.721Z,105
2018-01-01T13:05:48.224Z,85
2018-01-01T13:06:50.179Z,70
2018-01-01T13:07:52.169Z,85
2018-01-01T13:08:53.833Z,110
2018-01-01T13:09:55.491Z,110
2018-01-01T13:10:57.254Z,115
2018-01-01T13:11:58.989Z,105
2018-01-01T13:13:00.741Z,95
2018-01-01T13:14:02.366Z,80
2018-01-01T13:15:04.128Z,95
2018-01-01T13:16:06.030Z,100
2018-01-01T13:17:08.100Z,105
2018-01-01T13:18:09.747Z,140
2018-01-01T13:19:11.282Z,165
2018-01-01T13:20:13.127Z,225
2018-01-01T13:21:14.786Z,225
2018-01-01T13:22:16.584Z,210
2018-01-01T13:23:18.295Z,205
2018-01-01T13:24:20.045Z,175
2018-01-01T13:25:21.588Z,185
2018-01-01T13:26:23.445Z,220
2018-01-01T13:27:25.164Z,230
2018-01-01T13:28:26.942Z,190
2018-01-01T13:29:28.702Z,180
2018-01-01T13:30:30.757Z,170
2018-01-01T13:31:32.316Z,170
2018-01-01T13:32:34.334Z,175
2018-01-01T13:33:36.070Z,150
2018-01-01T13:34:37.764Z,145
2018-01-01T13:35:39.256Z,185
2018-01-01T13:36:40.874Z,210
2018-01-01T13:37:42.292Z,240
2018-01-01T13:38:44.183Z,265
2018-01-01T13:39:45.959Z,285
2018-01-01T13:40:47.936Z,265
2018-01-01T13:41:49.655Z,240
2018-01-01T13:42:51.338Z,245
2018-01-01T13:43:52.853Z,240
2018-01-01T13:44:54.434Z,235
2018-01-01T13:45:55.867Z,225
2018-01-01T13:46:57.600Z,210
2018-01-01T13:47:59.313Z,200
2018-01-01T13:49:00.796Z,195
2018-01-01T13:50:02.491Z,185
2018-01-01T13:51:04.174Z,180
2018-01-01T13:52:05.848Z,180
2018-01-01T13:53:07.326Z,170
2018-01-01T13:54:08.790Z,160
2018-01-01T13:55:10.283Z,155
2018-01-01T13:56:11.926Z,150
2018-01-01T13:57:13.442Z,140
2018-01-01T13:58:14.905Z,140
2018-01-01T13:59:16.373Z,140
2018-01-01T14:00:18.231Z,145
2018-01-01T14:01:20.017Z,140
2018-01-01T14:02:21.781Z,130
2018-01-01T14:03:23.399Z,125
2018-01-01T14:04:24.892Z,120
2018-01-01T14:05:26.405Z,110
2018-01-01T14:06:28.135Z,100
2018-01-01T14:07:29.699Z,95
2018-01-01T14:08:31.524Z,85
2018-01-01T14:09:33.262Z,85
2018-01-01T14:10:35.073Z,85
2018-01-01T14:11:36.782Z,85
2018-01-01T14:12:38.577Z,80
2018-01-01T14:13:40.347Z,80
2018-01-01T14:14:42.051Z,80
2018-01-01T14:15:43.511Z,80
2018-01-01T14:16:45.191Z,80
2018-01-01T14:17:46.883Z,75
2018-01-01T14:18:48.364Z,70
2018-01-01T14:19:50.068Z,70
2018-01-01T14:20:51.536Z,70
2018-01-01T14:21:53.259Z,70
2018-01-01T14:22:54.747Z,75
2018-01-01T14:23:56.224Z,80
2018-01-01T14:24:57.724Z,80
2018-01-01T14:25:59.182Z,80
2018-01-01T14:27:00.641Z,75
2018-01-01T14:28:02.113Z,75
2018-01-01T14:29:03.582Z,75
2018-01-01T14:30:05.322Z,75
2018-01-01T14:31:06.899Z,75
2018-01-01T14:32:08.401Z,70
2018-01-01T14:33:09.862Z,70
2018-01-01T14:34:11.591Z,65
2018-01-01T14:35:13.364Z,60
2018-01-01T14:36:15.088Z,60
2018-01-01T14:37:16.774Z,60
2018-01-01T14:38:18.382Z,55
2018-01-01T14:39:20.192Z,55
2018-01-01T14:40:21.900Z,50
2018-01-01T14:41:23.645Z,50
2018-01-01T14:42:25.069Z,50
2018-01-01T14:43:26.557Z,50